Time;durP1;ratioP1;P1;durP2;ratioP2;P2;SDS_P1;SDS_P2;PMS_P1;PMS_P2;Temp;Humidity;BMP_temperature;BMP_pressure;BME280_temperature;BME280_humidity;BME280_pressure;Samples;Min_cycle;Max_cycle;Signal;HPM_P1;HPM_P2
2022/01/24 00:01:28;;;;;;;20.80;13.00;;;;;;;;;;5050951;28;20260;-70
2022/01/24 00:03:57;;;;;;;21.50;12.43;;;;;;;;;;5045748;28;20643;-69
2022/01/24 00:06:23;;;;;;;18.93;13.57;;;;;;;;;;5050310;28;20267;-70
2022/01/24 00:08:49;;;;;;;18.73;13.23;;;;;;;;;;5047896;28;20180;-68
2022/01/24 00:11:18;;;;;;;21.07;13.67;;;;;;;;;;5048353;28;20177;-70
2022/01/24 00:14:04;;;;;;;23.70;14.53;;;;;;;;;;5044163;28;20193;-68
2022/01/24 00:26:47;;;;;;;19.00;12.80;;;;;;;;;;5048720;28;20279;-68
2022/01/24 00:29:16;;;;;;;19.40;13.00;;;;;;;;;;5046849;28;20635;-68
2022/01/24 00:31:41;;;;;;;19.47;13.47;;;;;;;;;;5044564;28;20631;-69
2022/01/24 00:34:07;;;;;;;19.73;12.33;;;;;;;;;;5046055;28;20233;-69
2022/01/24 00:36:32;;;;;;;21.50;12.73;;;;;;;;;;5045727;28;20644;-68
2022/01/24 00:38:57;;;;;;;19.83;12.67;;;;;;;;;;5048389;28;20250;-68
2022/01/24 00:41:23;;;;;;;18.00;12.97;;;;;;;;;;5046318;28;20177;-69
2022/01/24 00:46:41;;;;;;;21.00;12.73;;;;;;;;;;5051424;28;20267;-68
2022/01/24 00:56:59;;;;;;;19.70;12.27;;;;;;;;;;5063537;22;20232;-70
2022/01/24 00:59:24;;;;;;;16.43;11.07;;;;;;;;;;5049386;28;20210;-71
2022/01/24 01:01:49;;;;;;;18.70;11.67;;;;;;;;;;5050575;28;20200;-70
2022/01/24 01:04:15;;;;;;;19.30;12.67;;;;;;;;;;5048806;28;20192;-70
2022/01/24 01:06:43;;;;;;;19.87;11.70;;;;;;;;;;5051148;28;20197;-70
2022/01/24 01:20:04;;;;;;;17.77;11.63;;;;;;;;;;5049609;28;20283;-70
2022/01/24 01:22:29;;;;;;;18.33;11.27;;;;;;;;;;5048574;28;20212;-70
2022/01/24 01:24:56;;;;;;;21.03;12.37;;;;;;;;;;5052070;28;20264;-70
2022/01/24 01:27:27;;;;;;;18.07;12.70;;;;;;;;;;5052324;28;20193;-70
2022/01/24 01:30:35;;;;;;;19.27;12.93;;;;;;;;;;5034161;28;20181;-70
2022/01/24 01:54:12;;;;;;;24.10;15.33;;;;;;;;;;5051254;28;20232;-70
2022/01/24 01:56:37;;;;;;;24.17;14.93;;;;;;;;;;5051661;28;20220;-70
2022/01/24 01:59:02;;;;;;;21.43;14.73;;;;;;;;;;5049725;28;20202;-70
2022/01/24 02:01:28;;;;;;;22.73;14.73;;;;;;;;;;5050360;28;20351;-70
2022/01/24 02:03:54;;;;;;;23.53;15.60;;;;;;;;;;5051680;28;20257;-70
2022/01/24 02:06:20;;;;;;;24.07;15.87;;;;;;;;;;5051654;28;20201;-70
2022/01/24 02:08:45;;;;;;;21.63;15.67;;;;;;;;;;5051660;28;20174;-70
2022/01/24 02:11:14;;;;;;;23.37;15.20;;;;;;;;;;5033399;28;20178;-70
2022/01/24 02:13:40;;;;;;;23.93;15.00;;;;;;;;;;5051493;28;20202;-69
2022/01/24 02:16:18;;;;;;;23.63;16.30;;;;;;;;;;5051445;28;20686;-70
2022/01/24 02:18:53;;;;;;;24.83;15.87;;;;;;;;;;5050144;28;20184;-71
2022/01/24 02:21:41;;;;;;;24.83;16.03;;;;;;;;;;5051459;28;20556;-71
2022/01/24 02:24:08;;;;;;;24.83;16.27;;;;;;;;;;5051809;28;20268;-68
2022/01/24 02:26:34;;;;;;;29.10;17.33;;;;;;;;;;5051701;28;20219;-69
2022/01/24 02:31:59;;;;;;;25.27;16.90;;;;;;;;;;4969861;28;20301;-68
2022/01/24 02:34:34;;;;;;;25.67;17.50;;;;;;;;;;5033771;28;20292;-68
2022/01/24 02:37:02;;;;;;;26.67;18.77;;;;;;;;;;5046890;28;20605;-69
2022/01/24 02:53:17;;;;;;;30.17;19.90;;;;;;;;;;5049711;28;20724;-68
2022/01/24 02:55:42;;;;;;;31.83;19.83;;;;;;;;;;5048535;28;20221;-69
2022/01/24 02:58:08;;;;;;;32.40;20.37;;;;;;;;;;5049430;28;20253;-69
2022/01/24 03:00:34;;;;;;;37.70;22.77;;;;;;;;;;5047436;28;20201;-69
2022/01/24 03:02:59;;;;;;;37.47;23.93;;;;;;;;;;5049716;28;20201;-69
2022/01/24 03:05:24;;;;;;;36.53;22.53;;;;;;;;;;5052341;28;20272;-69
2022/01/24 03:07:50;;;;;;;38.43;25.27;;;;;;;;;;5048517;28;20201;-68
2022/01/24 03:10:25;;;;;;;39.13;25.03;;;;;;;;;;5048510;28;20182;-68
2022/01/24 03:12:59;;;;;;;37.37;25.30;;;;;;;;;;5044386;28;20228;-68
2022/01/24 03:15:25;;;;;;;37.90;25.03;;;;;;;;;;5048329;28;20177;-71
2022/01/24 03:17:50;;;;;;;38.23;26.43;;;;;;;;;;5048454;28;20197;-69
2022/01/24 03:20:15;;;;;;;35.63;25.27;;;;;;;;;;5049835;28;20592;-69
2022/01/24 03:22:40;;;;;;;37.57;25.40;;;;;;;;;;5045855;28;20177;-68
2022/01/24 03:25:06;;;;;;;42.77;26.83;;;;;;;;;;5052109;28;20231;-69
2022/01/24 03:27:31;;;;;;;37.07;25.97;;;;;;;;;;5049146;28;20209;-68
2022/01/24 03:29:56;;;;;;;41.80;25.77;;;;;;;;;;5048887;28;20208;-69
2022/01/24 03:32:21;;;;;;;35.17;24.13;;;;;;;;;;5049744;28;20255;-69
2022/01/24 03:34:46;;;;;;;40.57;26.80;;;;;;;;;;5051413;28;20658;-68
2022/01/24 03:37:12;;;;;;;43.73;27.80;;;;;;;;;;5049921;28;20233;-69
2022/01/24 03:39:37;;;;;;;41.07;26.37;;;;;;;;;;5049403;28;20196;-68
2022/01/24 03:42:02;;;;;;;39.37;27.10;;;;;;;;;;5047705;28;20180;-68
2022/01/24 03:44:28;;;;;;;39.53;27.00;;;;;;;;;;5047104;28;20184;-69
2022/01/24 03:52:09;;;;;;;40.03;26.83;;;;;;;;;;5047510;28;20222;-68
2022/01/24 03:54:35;;;;;;;41.93;27.33;;;;;;;;;;5047492;28;20185;-69
2022/01/24 03:57:00;;;;;;;42.53;27.57;;;;;;;;;;5049030;28;20221;-69
2022/01/24 03:59:25;;;;;;;41.57;29.20;;;;;;;;;;5046532;28;20205;-69
2022/01/24 04:01:50;;;;;;;45.63;30.17;;;;;;;;;;5048157;28;20174;-70
2022/01/24 04:04:15;;;;;;;44.53;28.30;;;;;;;;;;5047658;28;20188;-68
2022/01/24 04:06:41;;;;;;;47.30;29.83;;;;;;;;;;5049235;28;20201;-69
2022/01/24 04:09:06;;;;;;;46.63;29.57;;;;;;;;;;5046912;28;20236;-68
2022/01/24 04:11:36;;;;;;;46.27;30.63;;;;;;;;;;5047243;28;20190;-69
2022/01/24 04:14:21;;;;;;;42.60;29.20;;;;;;;;;;5047029;28;20174;-69
2022/01/24 04:16:53;;;;;;;47.97;30.90;;;;;;;;;;5032227;28;20231;-68
2022/01/24 04:22:14;;;;;;;49.43;32.10;;;;;;;;;;5005847;28;20988;-69
2022/01/24 04:24:40;;;;;;;48.43;30.70;;;;;;;;;;5055291;28;20169;-69
2022/01/24 04:27:06;;;;;;;48.63;31.10;;;;;;;;;;5049139;28;20201;-69
2022/01/24 04:29:32;;;;;;;48.23;30.80;;;;;;;;;;5052230;28;20634;-69
2022/01/24 04:31:57;;;;;;;47.33;31.60;;;;;;;;;;5052494;28;20192;-69
2022/01/24 04:34:22;;;;;;;44.47;30.53;;;;;;;;;;5050831;28;20181;-70
2022/01/24 04:36:48;;;;;;;47.17;29.83;;;;;;;;;;5049505;28;20685;-69
2022/01/24 04:39:13;;;;;;;47.47;31.30;;;;;;;;;;5052330;28;20211;-70
2022/01/24 04:41:42;;;;;;;44.40;30.90;;;;;;;;;;5048455;28;20174;-70
2022/01/24 04:52:15;;;;;;;44.23;30.47;;;;;;;;;;5049011;28;20187;-69
2022/01/24 04:54:44;;;;;;;44.83;30.57;;;;;;;;;;5051085;28;20181;-70
2022/01/24 04:57:10;;;;;;;41.80;27.33;;;;;;;;;;5051145;28;20296;-70
2022/01/24 04:59:36;;;;;;;45.77;30.00;;;;;;;;;;5052849;28;20818;-70
2022/01/24 05:02:02;;;;;;;45.10;30.07;;;;;;;;;;5050584;28;20252;-69
2022/01/24 05:04:27;;;;;;;48.23;32.70;;;;;;;;;;5050996;28;20174;-70
2022/01/24 05:06:52;;;;;;;47.07;31.63;;;;;;;;;;5051999;28;20197;-70
2022/01/24 05:09:19;;;;;;;45.93;29.47;;;;;;;;;;5048489;28;20181;-70
2022/01/24 05:24:46;;;;;;;45.07;29.30;;;;;;;;;;5054459;28;20177;-70
2022/01/24 05:27:12;;;;;;;47.07;30.60;;;;;;;;;;5047493;28;20206;-70
2022/01/24 05:29:37;;;;;;;43.67;29.17;;;;;;;;;;5032239;28;20182;-69
2022/01/24 05:32:03;;;;;;;44.90;30.10;;;;;;;;;;5051521;28;20174;-70
2022/01/24 05:34:28;;;;;;;41.73;28.67;;;;;;;;;;5051122;28;20177;-69
2022/01/24 05:36:54;;;;;;;43.63;28.73;;;;;;;;;;5034022;28;20209;-69
2022/01/24 05:39:19;;;;;;;42.73;29.90;;;;;;;;;;5050143;28;20833;-70
2022/01/24 05:41:44;;;;;;;42.97;29.87;;;;;;;;;;5046081;28;20201;-69
2022/01/24 05:44:09;;;;;;;39.80;27.47;;;;;;;;;;5050185;28;20174;-68
2022/01/24 05:46:35;;;;;;;43.90;27.97;;;;;;;;;;5050455;28;20218;-70
2022/01/24 05:49:01;;;;;;;38.47;25.77;;;;;;;;;;5051286;28;20291;-70
2022/01/24 05:51:28;;;;;;;37.73;25.73;;;;;;;;;;5034307;28;20686;-70
2022/01/24 05:53:53;;;;;;;41.37;28.50;;;;;;;;;;5030979;28;20188;-69
2022/01/24 05:56:19;;;;;;;40.20;27.43;;;;;;;;;;5050710;28;20201;-70
2022/01/24 05:58:44;;;;;;;38.43;26.63;;;;;;;;;;5051437;28;20180;-70
2022/01/24 06:01:09;;;;;;;37.37;25.57;;;;;;;;;;5050750;28;20264;-70
2022/01/24 06:03:35;;;;;;;38.67;26.60;;;;;;;;;;5051502;28;20558;-70
2022/01/24 06:06:00;;;;;;;41.83;28.20;;;;;;;;;;5032062;28;20268;-70
2022/01/24 06:08:25;;;;;;;41.10;27.50;;;;;;;;;;5049971;28;20231;-69
2022/01/24 06:10:50;;;;;;;39.27;26.87;;;;;;;;;;5049911;28;20273;-70
2022/01/24 06:13:16;;;;;;;41.00;26.87;;;;;;;;;;5031189;28;20173;-70
2022/01/24 06:15:42;;;;;;;43.87;28.63;;;;;;;;;;5047095;28;20192;-70
2022/01/24 06:18:07;;;;;;;39.83;27.50;;;;;;;;;;5049047;28;20198;-69
2022/01/24 06:20:33;;;;;;;37.90;27.33;;;;;;;;;;5050181;28;20206;-70
2022/01/24 06:22:58;;;;;;;38.40;26.07;;;;;;;;;;5050866;28;20201;-70
2022/01/24 06:25:24;;;;;;;42.00;28.80;;;;;;;;;;5051767;28;20180;-69
2022/01/24 06:27:50;;;;;;;41.87;27.73;;;;;;;;;;5029245;28;20201;-70
2022/01/24 06:30:16;;;;;;;44.23;28.93;;;;;;;;;;5047185;28;20200;-70
2022/01/24 06:32:41;;;;;;;44.40;29.43;;;;;;;;;;5032164;28;20730;-70
2022/01/24 06:35:08;;;;;;;41.03;27.17;;;;;;;;;;5050320;28;20503;-69
2022/01/24 06:37:33;;;;;;;41.33;27.87;;;;;;;;;;5048701;28;20205;-70
2022/01/24 06:39:58;;;;;;;41.43;28.17;;;;;;;;;;5048463;28;20266;-69
2022/01/24 06:42:23;;;;;;;40.93;28.73;;;;;;;;;;5047061;28;20200;-70
2022/01/24 06:44:49;;;;;;;45.53;30.07;;;;;;;;;;5049373;28;20181;-70
2022/01/24 06:47:14;;;;;;;44.53;27.20;;;;;;;;;;5047146;28;20923;-70
2022/01/24 06:49:39;;;;;;;41.17;27.87;;;;;;;;;;5047015;28;20643;-71
2022/01/24 06:52:06;;;;;;;39.00;27.27;;;;;;;;;;5050639;28;20246;-70
2022/01/24 06:54:32;;;;;;;40.63;26.57;;;;;;;;;;5045741;28;20181;-70
2022/01/24 06:56:57;;;;;;;40.77;28.13;;;;;;;;;;5031672;28;20259;-70
2022/01/24 06:59:22;;;;;;;36.83;25.77;;;;;;;;;;5049603;28;20201;-70
2022/01/24 07:01:48;;;;;;;35.13;24.23;;;;;;;;;;5048183;28;20186;-70
2022/01/24 07:04:13;;;;;;;32.70;24.47;;;;;;;;;;5047865;28;20188;-70
2022/01/24 07:06:38;;;;;;;37.17;25.87;;;;;;;;;;5041483;28;20978;-70
2022/01/24 07:09:03;;;;;;;36.63;24.90;;;;;;;;;;5048563;28;20188;-70
2022/01/24 07:11:29;;;;;;;35.97;25.33;;;;;;;;;;5049332;28;20709;-69
2022/01/24 07:13:54;;;;;;;40.27;25.87;;;;;;;;;;5047723;28;20721;-70
2022/01/24 07:16:19;;;;;;;34.60;24.47;;;;;;;;;;5047059;28;20220;-70
2022/01/24 07:19:03;;;;;;;36.07;25.57;;;;;;;;;;5048928;28;20595;-68
2022/01/24 07:21:28;;;;;;;34.60;24.50;;;;;;;;;;5029265;28;20178;-69
2022/01/24 07:23:53;;;;;;;33.40;24.63;;;;;;;;;;5048760;28;20247;-69
2022/01/24 07:26:19;;;;;;;34.17;23.17;;;;;;;;;;5048349;28;20209;-68
2022/01/24 07:28:44;;;;;;;36.13;22.63;;;;;;;;;;5049368;28;20186;-68
2022/01/24 07:31:09;;;;;;;34.50;23.10;;;;;;;;;;5025290;28;20181;-69
2022/01/24 07:33:35;;;;;;;33.90;24.30;;;;;;;;;;5029970;28;20677;-68
2022/01/24 07:36:00;;;;;;;36.40;24.40;;;;;;;;;;5049055;28;20181;-68
2022/01/24 07:38:25;;;;;;;32.40;23.13;;;;;;;;;;5047813;28;20678;-69
2022/01/24 07:40:53;;;;;;;33.77;23.30;;;;;;;;;;5028426;28;20209;-69
2022/01/24 07:43:18;;;;;;;32.17;23.87;;;;;;;;;;5048197;28;20236;-69
2022/01/24 07:45:45;;;;;;;35.23;24.13;;;;;;;;;;5048952;28;20280;-69
2022/01/24 07:48:11;;;;;;;32.83;23.83;;;;;;;;;;5050088;28;20252;-69
2022/01/24 07:50:37;;;;;;;35.43;24.27;;;;;;;;;;5051104;28;20272;-69
2022/01/24 07:53:02;;;;;;;32.03;23.33;;;;;;;;;;5036786;28;20288;-68
2022/01/24 07:55:27;;;;;;;32.80;24.10;;;;;;;;;;5054408;28;20246;-69
2022/01/24 07:57:53;;;;;;;33.73;24.00;;;;;;;;;;5036131;28;20217;-69
2022/01/24 08:00:18;;;;;;;34.23;24.33;;;;;;;;;;5053794;28;20240;-69
2022/01/24 08:02:43;;;;;;;34.17;23.90;;;;;;;;;;5054130;28;20219;-71
2022/01/24 08:05:09;;;;;;;34.17;24.03;;;;;;;;;;5048186;28;20674;-69
2022/01/24 08:07:34;;;;;;;33.27;23.23;;;;;;;;;;5048373;28;20201;-69
2022/01/24 08:09:59;;;;;;;32.30;24.33;;;;;;;;;;5050692;28;20264;-69
2022/01/24 08:12:25;;;;;;;31.80;22.90;;;;;;;;;;5051065;28;20261;-69
2022/01/24 08:14:50;;;;;;;34.43;24.07;;;;;;;;;;5051151;28;20542;-70
2022/01/24 08:17:15;;;;;;;35.10;24.23;;;;;;;;;;5050431;28;20205;-68
2022/01/24 08:19:40;;;;;;;30.40;21.60;;;;;;;;;;5052693;28;20205;-69
2022/01/24 08:22:06;;;;;;;28.43;21.13;;;;;;;;;;5051711;28;20224;-68
2022/01/24 08:24:31;;;;;;;28.47;20.67;;;;;;;;;;5054508;28;20169;-69
2022/01/24 08:26:56;;;;;;;28.90;21.80;;;;;;;;;;5051237;28;20244;-68
2022/01/24 08:29:21;;;;;;;28.37;20.00;;;;;;;;;;5053564;28;20173;-69
2022/01/24 08:31:47;;;;;;;28.53;20.53;;;;;;;;;;5047300;28;20174;-69
2022/01/24 08:34:12;;;;;;;28.67;19.40;;;;;;;;;;5052230;28;20272;-69
2022/01/24 08:36:37;;;;;;;26.17;20.13;;;;;;;;;;5050454;28;20526;-69
2022/01/24 08:39:07;;;;;;;28.93;20.20;;;;;;;;;;5052461;28;20185;-69
2022/01/24 08:41:43;;;;;;;27.57;20.33;;;;;;;;;;5032844;28;20178;-69
2022/01/24 08:44:19;;;;;;;25.77;18.40;;;;;;;;;;5051575;28;20185;-69
2022/01/24 08:46:46;;;;;;;25.80;18.73;;;;;;;;;;5050960;28;20272;-70
2022/01/24 08:49:11;;;;;;;26.33;19.53;;;;;;;;;;5049621;28;20182;-69
2022/01/24 08:51:36;;;;;;;26.30;19.73;;;;;;;;;;5034643;28;20716;-70
2022/01/24 08:54:05;;;;;;;27.73;20.80;;;;;;;;;;5050209;28;20189;-69
2022/01/24 08:56:30;;;;;;;27.30;20.73;;;;;;;;;;5050775;28;20350;-69
2022/01/24 08:58:56;;;;;;;28.43;20.03;;;;;;;;;;5049978;28;20272;-70
2022/01/24 09:01:21;;;;;;;29.27;20.70;;;;;;;;;;5054611;28;20177;-70
2022/01/24 09:03:46;;;;;;;30.67;21.87;;;;;;;;;;5032343;28;20228;-69
2022/01/24 09:06:13;;;;;;;31.60;23.47;;;;;;;;;;5031149;28;20197;-69
2022/01/24 09:08:38;;;;;;;31.33;22.63;;;;;;;;;;5048893;28;20593;-70
2022/01/24 09:11:04;;;;;;;31.07;22.67;;;;;;;;;;5053230;28;20173;-69
2022/01/24 09:13:30;;;;;;;28.93;22.33;;;;;;;;;;5053544;28;20223;-70
2022/01/24 09:15:55;;;;;;;28.63;21.53;;;;;;;;;;5051316;28;20720;-69
2022/01/24 09:18:20;;;;;;;31.10;22.83;;;;;;;;;;5052623;28;20273;-70
2022/01/24 09:20:49;;;;;;;32.07;22.87;;;;;;;;;;5046695;28;20307;-70
2022/01/24 09:23:14;;;;;;;33.43;23.43;;;;;;;;;;5033418;28;20239;-70
2022/01/24 09:25:39;;;;;;;29.60;22.83;;;;;;;;;;5050555;28;20190;-70
2022/01/24 09:28:04;;;;;;;29.27;21.90;;;;;;;;;;5052353;28;20251;-70
2022/01/24 09:30:30;;;;;;;29.33;21.67;;;;;;;;;;5049698;28;20504;-68
2022/01/24 09:32:55;;;;;;;34.07;22.87;;;;;;;;;;5050772;28;20193;-70
2022/01/24 09:35:21;;;;;;;34.57;23.63;;;;;;;;;;5050839;28;20193;-71
2022/01/24 09:37:47;;;;;;;35.40;25.43;;;;;;;;;;5050687;28;20201;-71
2022/01/24 09:40:13;;;;;;;32.40;23.13;;;;;;;;;;5051305;28;20260;-71
2022/01/24 09:42:39;;;;;;;34.03;24.17;;;;;;;;;;5046269;28;20234;-70
2022/01/24 09:45:04;;;;;;;33.30;23.07;;;;;;;;;;5050099;28;20252;-71
2022/01/24 09:47:30;;;;;;;30.60;22.10;;;;;;;;;;5050469;28;20552;-71
2022/01/24 09:49:55;;;;;;;32.40;22.47;;;;;;;;;;5050517;28;20217;-70
2022/01/24 09:52:20;;;;;;;32.23;22.33;;;;;;;;;;5049446;28;20606;-70
2022/01/24 09:54:46;;;;;;;30.27;22.57;;;;;;;;;;5051063;28;20598;-70
2022/01/24 09:57:12;;;;;;;30.17;20.90;;;;;;;;;;5050828;28;20213;-70
2022/01/24 09:59:37;;;;;;;29.03;21.50;;;;;;;;;;5051729;28;20209;-70
2022/01/24 10:02:03;;;;;;;31.57;23.10;;;;;;;;;;5050726;28;20638;-70
2022/01/24 10:04:29;;;;;;;29.30;21.47;;;;;;;;;;5049540;28;20832;-70
2022/01/24 10:07:05;;;;;;;31.17;22.20;;;;;;;;;;5048020;28;20343;-70
2022/01/24 10:09:30;;;;;;;28.80;21.63;;;;;;;;;;5047654;28;20193;-69
2022/01/24 10:17:38;;;;;;;25.47;18.37;;;;;;;;;;5047250;28;20244;-69
2022/01/24 10:20:21;;;;;;;27.63;20.57;;;;;;;;;;5049744;28;20193;-68
2022/01/24 10:23:05;;;;;;;25.53;18.30;;;;;;;;;;5051395;28;20182;-68
2022/01/24 10:25:31;;;;;;;24.30;18.87;;;;;;;;;;5049736;28;20174;-69
2022/01/24 10:28:00;;;;;;;23.97;18.03;;;;;;;;;;5050462;28;20679;-69
2022/01/24 10:30:26;;;;;;;24.27;17.77;;;;;;;;;;5048062;28;20546;-70
2022/01/24 10:32:52;;;;;;;21.03;17.13;;;;;;;;;;5051579;28;20181;-70
2022/01/24 10:35:36;;;;;;;20.63;16.03;;;;;;;;;;5048871;28;20177;-69
2022/01/24 10:38:52;;;;;;;22.57;17.87;;;;;;;;;;5049603;28;20224;-70
2022/01/24 10:41:21;;;;;;;24.67;17.67;;;;;;;;;;4983924;28;20220;-70
2022/01/24 10:43:47;;;;;;;21.03;17.13;;;;;;;;;;4989363;28;20279;-70
2022/01/24 10:46:12;;;;;;;22.93;16.90;;;;;;;;;;5024473;28;20292;-69
2022/01/24 10:48:42;;;;;;;21.83;17.53;;;;;;;;;;5052706;28;20170;-69
2022/01/24 10:51:25;;;;;;;22.87;16.90;;;;;;;;;;5048859;28;20177;-70
2022/01/24 10:53:52;;;;;;;20.97;15.83;;;;;;;;;;5049594;28;20197;-71
2022/01/24 10:56:34;;;;;;;22.83;17.20;;;;;;;;;;5049946;28;20223;-68
2022/01/24 10:59:21;;;;;;;22.20;16.43;;;;;;;;;;5047089;28;20744;-71
2022/01/24 11:02:06;;;;;;;17.33;14.70;;;;;;;;;;5033095;28;20264;-69
2022/01/24 11:04:33;;;;;;;22.70;16.90;;;;;;;;;;5028127;28;20181;-68
2022/01/24 11:07:01;;;;;;;20.80;16.53;;;;;;;;;;5047876;28;20233;-69
2022/01/24 11:09:33;;;;;;;19.70;16.10;;;;;;;;;;5045920;28;20188;-71
2022/01/24 11:12:10;;;;;;;19.60;15.17;;;;;;;;;;5048627;28;20619;-69
2022/01/24 11:14:36;;;;;;;19.57;15.80;;;;;;;;;;5046141;28;20191;-70
2022/01/24 11:17:03;;;;;;;19.17;15.17;;;;;;;;;;5027520;28;20205;-70
2022/01/24 11:21:55;;;;;;;21.23;16.53;;;;;;;;;;5047697;28;20260;-71
2022/01/24 11:24:27;;;;;;;23.03;17.17;;;;;;;;;;5050619;28;20243;-71
2022/01/24 11:26:52;;;;;;;18.73;14.73;;;;;;;;;;5049736;28;20732;-70
2022/01/24 11:29:19;;;;;;;25.53;16.13;;;;;;;;;;5048791;28;20173;-71
2022/01/24 11:31:49;;;;;;;17.33;14.57;;;;;;;;;;5048942;28;20181;-70
2022/01/24 11:34:31;;;;;;;21.30;15.77;;;;;;;;;;5047730;28;20257;-70
2022/01/24 11:36:56;;;;;;;19.23;15.87;;;;;;;;;;5044561;28;20197;-70
2022/01/24 11:39:22;;;;;;;19.90;15.93;;;;;;;;;;5048372;28;20228;-70
2022/01/24 11:41:48;;;;;;;19.03;14.87;;;;;;;;;;5047468;28;20185;-69
2022/01/24 11:44:16;;;;;;;19.77;15.33;;;;;;;;;;5051127;28;20185;-69
2022/01/24 11:46:48;;;;;;;19.93;15.37;;;;;;;;;;5047706;28;20193;-70
2022/01/24 11:49:18;;;;;;;21.23;15.97;;;;;;;;;;5048012;28;20265;-69
2022/01/24 11:51:46;;;;;;;19.47;14.67;;;;;;;;;;5050729;28;20556;-69
2022/01/24 11:54:42;;;;;;;22.10;16.67;;;;;;;;;;5028554;28;20609;-69
2022/01/24 11:57:32;;;;;;;20.40;16.40;;;;;;;;;;5048676;28;20209;-69
2022/01/24 12:00:00;;;;;;;19.90;14.80;;;;;;;;;;5027883;28;20568;-68
2022/01/24 12:02:28;;;;;;;19.67;15.47;;;;;;;;;;5050082;28;20181;-69
2022/01/24 12:04:58;;;;;;;20.67;15.83;;;;;;;;;;5047267;28;20173;-69
2022/01/24 12:07:25;;;;;;;19.80;15.57;;;;;;;;;;5046369;28;20205;-69
2022/01/24 12:09:54;;;;;;;19.40;15.90;;;;;;;;;;5047134;28;20213;-69
2022/01/24 12:12:38;;;;;;;20.37;15.60;;;;;;;;;;5046641;28;20178;-71
2022/01/24 12:15:04;;;;;;;21.47;16.50;;;;;;;;;;5048559;28;20181;-71
2022/01/24 12:17:49;;;;;;;21.73;15.87;;;;;;;;;;5047772;28;20302;-71
2022/01/24 12:20:29;;;;;;;24.13;17.93;;;;;;;;;;5047985;28;20682;-71
2022/01/24 12:22:54;;;;;;;24.30;17.67;;;;;;;;;;5046186;28;20182;-70
2022/01/24 12:25:39;;;;;;;24.83;18.87;;;;;;;;;;5050706;28;20521;-70
2022/01/24 12:28:15;;;;;;;21.10;16.43;;;;;;;;;;5024563;28;20205;-70
2022/01/24 12:30:59;;;;;;;25.23;18.93;;;;;;;;;;5049189;28;20177;-69
2022/01/24 12:33:47;;;;;;;26.53;17.80;;;;;;;;;;5048046;28;20208;-69
2022/01/24 12:36:14;;;;;;;21.77;16.30;;;;;;;;;;5033769;28;20687;-70
2022/01/24 12:38:52;;;;;;;25.47;17.83;;;;;;;;;;5051460;28;20216;-70
2022/01/24 12:41:20;;;;;;;22.13;16.57;;;;;;;;;;5048728;28;20608;-71
2022/01/24 12:43:58;;;;;;;23.07;17.90;;;;;;;;;;5031375;28;20174;-71
2022/01/24 12:46:26;;;;;;;24.00;17.57;;;;;;;;;;5048080;28;20189;-70
2022/01/24 12:48:52;;;;;;;20.43;16.07;;;;;;;;;;5048478;28;20533;-70
2022/01/24 12:51:21;;;;;;;22.53;17.97;;;;;;;;;;5050728;28;20668;-70
2022/01/24 12:53:46;;;;;;;22.27;16.00;;;;;;;;;;5050932;28;20178;-70
2022/01/24 12:56:12;;;;;;;21.98;17.17;;;;;;;;;;5010325;28;1073223;-71
2022/01/24 12:58:38;;;;;;;20.17;15.70;;;;;;;;;;5032399;28;20185;-70
2022/01/24 13:01:17;;;;;;;22.17;17.93;;;;;;;;;;5052522;28;20205;-71
2022/01/24 13:03:46;;;;;;;22.47;16.10;;;;;;;;;;5032384;28;20231;-71
2022/01/24 13:06:13;;;;;;;21.93;16.90;;;;;;;;;;5049203;28;20671;-68
2022/01/24 13:08:38;;;;;;;24.67;17.17;;;;;;;;;;5032429;28;20550;-69
2022/01/24 13:11:08;;;;;;;21.17;17.00;;;;;;;;;;5052240;28;20196;-71
2022/01/24 13:13:37;;;;;;;22.97;17.83;;;;;;;;;;5051015;28;20238;-71
2022/01/24 13:21:43;;;;;;;21.40;17.03;;;;;;;;;;5049255;28;20193;-71
2022/01/24 13:24:08;;;;;;;25.13;18.03;;;;;;;;;;5051909;28;20173;-70
2022/01/24 13:26:33;;;;;;;20.17;16.10;;;;;;;;;;5050967;28;20637;-71
2022/01/24 13:29:05;;;;;;;21.20;16.47;;;;;;;;;;5051283;28;20174;-70
2022/01/24 13:31:30;;;;;;;23.63;18.07;;;;;;;;;;5032969;28;20188;-70
2022/01/24 13:33:57;;;;;;;23.00;17.37;;;;;;;;;;5050206;28;20862;-71
2022/01/24 13:36:22;;;;;;;23.17;18.80;;;;;;;;;;5051152;28;20204;-72
2022/01/24 13:38:49;;;;;;;26.23;19.70;;;;;;;;;;5049769;28;20177;-68
2022/01/24 13:41:18;;;;;;;22.40;17.80;;;;;;;;;;5051219;28;20210;-69
2022/01/24 13:43:52;;;;;;;22.67;17.30;;;;;;;;;;5049345;28;20184;-68
2022/01/24 13:46:22;;;;;;;22.43;17.37;;;;;;;;;;5048138;28;20243;-69
2022/01/24 13:48:52;;;;;;;22.27;17.37;;;;;;;;;;5049814;28;20178;-69
2022/01/24 13:51:22;;;;;;;24.53;17.33;;;;;;;;;;5050294;28;20209;-71
2022/01/24 13:53:53;;;;;;;23.90;18.07;;;;;;;;;;5051618;28;20181;-68
2022/01/24 13:56:21;;;;;;;25.27;18.53;;;;;;;;;;5047660;28;20217;-69
2022/01/24 13:59:06;;;;;;;22.43;16.60;;;;;;;;;;5033857;28;20213;-69
2022/01/24 14:01:32;;;;;;;25.50;18.27;;;;;;;;;;5047137;28;20643;-68
2022/01/24 14:04:02;;;;;;;23.43;17.63;;;;;;;;;;5049602;28;20192;-68
2022/01/24 14:06:31;;;;;;;22.93;17.67;;;;;;;;;;5029978;28;20197;-69
2022/01/24 14:09:15;;;;;;;22.50;17.50;;;;;;;;;;5048188;28;20196;-69
2022/01/24 14:11:44;;;;;;;24.30;17.40;;;;;;;;;;5049008;28;20182;-69
2022/01/24 14:14:13;;;;;;;23.10;17.80;;;;;;;;;;5047783;28;20181;-68
2022/01/24 14:16:53;;;;;;;23.53;17.80;;;;;;;;;;5051019;28;20280;-68
2022/01/24 14:19:31;;;;;;;24.90;18.43;;;;;;;;;;5050670;28;20643;-68
2022/01/24 14:22:15;;;;;;;23.33;17.20;;;;;;;;;;5050655;28;20189;-68
2022/01/24 14:24:55;;;;;;;24.57;18.03;;;;;;;;;;5049590;28;20181;-69
2022/01/24 14:27:38;;;;;;;26.63;18.57;;;;;;;;;;5029890;28;20582;-68
2022/01/24 14:30:07;;;;;;;25.23;20.10;;;;;;;;;;5051703;28;20204;-69
2022/01/24 14:32:35;;;;;;;24.10;18.77;;;;;;;;;;5046591;28;20189;-69
2022/01/24 14:35:05;;;;;;;23.47;19.33;;;;;;;;;;5051236;28;20182;-69
2022/01/24 14:37:46;;;;;;;28.07;21.83;;;;;;;;;;5048469;28;20209;-68
2022/01/24 14:40:30;;;;;;;27.30;19.33;;;;;;;;;;5050972;28;20762;-69
2022/01/24 14:44:52;;;;;;;25.13;19.00;;;;;;;;;;5046882;28;20193;-69
2022/01/24 14:45:40;;;;;;;25.43;18.20;;;;;;;;;;5049953;28;20186;-69
2022/01/24 14:48:06;;;;;;;26.80;18.20;;;;;;;;;;5048758;28;20564;-68
2022/01/24 14:50:32;;;;;;;26.73;20.37;;;;;;;;;;5050930;28;20284;-69
2022/01/24 14:52:59;;;;;;;24.23;18.97;;;;;;;;;;5049839;28;20236;-69
2022/01/24 14:55:24;;;;;;;26.90;19.73;;;;;;;;;;5050223;28;20174;-69
2022/01/24 14:57:49;;;;;;;26.10;18.87;;;;;;;;;;5048310;28;20228;-69
2022/01/24 15:00:15;;;;;;;30.10;19.93;;;;;;;;;;5029594;28;20679;-69
2022/01/24 15:02:40;;;;;;;26.30;19.47;;;;;;;;;;5045363;28;20204;-69
2022/01/24 15:05:06;;;;;;;26.23;20.07;;;;;;;;;;5028640;28;20202;-69
2022/01/24 15:07:31;;;;;;;32.10;20.60;;;;;;;;;;5050459;28;20204;-70
2022/01/24 15:09:56;;;;;;;25.43;18.93;;;;;;;;;;5048666;28;20189;-69
2022/01/24 15:12:22;;;;;;;27.00;19.67;;;;;;;;;;5048741;28;20201;-69
2022/01/24 15:14:48;;;;;;;25.77;20.23;;;;;;;;;;5050528;28;20208;-69
2022/01/24 15:27:38;;;;;;;26.07;19.40;;;;;;;;;;5050402;28;20255;-69
2022/01/24 15:30:04;;;;;;;26.90;20.23;;;;;;;;;;5048301;28;20193;-68
2022/01/24 15:32:30;;;;;;;25.97;19.90;;;;;;;;;;5049996;28;20186;-69
2022/01/24 15:34:55;;;;;;;27.50;19.73;;;;;;;;;;5046892;28;20320;-69
2022/01/24 15:37:20;;;;;;;24.20;18.23;;;;;;;;;;5050514;28;20237;-69
2022/01/24 15:39:46;;;;;;;26.23;20.03;;;;;;;;;;5048627;28;20410;-69
2022/01/24 15:42:16;;;;;;;27.43;20.87;;;;;;;;;;5045280;28;20178;-69
2022/01/24 15:45:13;;;;;;;27.10;19.40;;;;;;;;;;5046276;28;20178;-71
2022/01/24 15:47:44;;;;;;;26.73;19.57;;;;;;;;;;5049313;28;20208;-69
2022/01/24 15:50:10;;;;;;;29.20;21.37;;;;;;;;;;5049724;28;20689;-69
2022/01/24 15:52:36;;;;;;;28.83;20.60;;;;;;;;;;5050622;28;20624;-69
2022/01/24 15:55:06;;;;;;;35.47;22.43;;;;;;;;;;5047531;28;20187;-70
2022/01/24 15:57:40;;;;;;;26.23;20.27;;;;;;;;;;5029780;28;20209;-69
2022/01/24 16:00:07;;;;;;;28.50;20.60;;;;;;;;;;5029996;28;20203;-70
2022/01/24 16:02:32;;;;;;;26.73;19.00;;;;;;;;;;5047715;28;20186;-69
2022/01/24 16:04:58;;;;;;;29.53;20.93;;;;;;;;;;5047522;28;20173;-70
2022/01/24 16:07:23;;;;;;;27.97;19.33;;;;;;;;;;5031000;28;20468;-69
2022/01/24 16:09:48;;;;;;;30.00;19.93;;;;;;;;;;5046930;28;20598;-69
2022/01/24 16:12:14;;;;;;;28.20;18.73;;;;;;;;;;5047753;28;20200;-70
2022/01/24 16:14:39;;;;;;;23.43;18.03;;;;;;;;;;5052064;28;20197;-69
2022/01/24 16:17:04;;;;;;;23.30;17.67;;;;;;;;;;5052863;28;21357;-69
2022/01/24 16:19:33;;;;;;;23.93;17.80;;;;;;;;;;5053653;28;20201;-69
2022/01/24 16:22:02;;;;;;;26.33;19.33;;;;;;;;;;5052890;28;20264;-69
2022/01/24 16:26:56;;;;;;;26.63;18.50;;;;;;;;;;5053408;28;20211;-70
2022/01/24 16:29:21;;;;;;;25.03;18.07;;;;;;;;;;5052630;28;20185;-69